sensor_id;sensor_type;location;lat;lon;timestamp;P1;durP1;ratioP1;P2;durP2;ratioP2
29570;SDS011;16814;52.118;11.436;2023-09-08T00:00:18;8.23;;;5.20;;
29570;SDS011;16814;52.118;11.436;2023-09-08T00:02:45;9.00;;;5.22;;
29570;SDS011;16814;52.118;11.436;2023-09-08T00:05:13;10.38;;;5.57;;
29570;SDS011;16814;52.118;11.436;2023-09-08T00:07:40;9.03;;;5.60;;
29570;SDS011;16814;52.118;11.436;2023-09-08T00:10:08;9.00;;;5.63;;
29570;SDS011;16814;52.118;11.436;2023-09-08T00:12:35;8.85;;;5.50;;
29570;SDS011;16814;52.118;11.436;2023-09-08T00:15:02;9.00;;;5.80;;
29570;SDS011;16814;52.118;11.436;2023-09-08T00:17:32;8.83;;;5.43;;
29570;SDS011;16814;52.118;11.436;2023-09-08T00:19:59;12.05;;;5.88;;
29570;SDS011;16814;52.118;11.436;2023-09-08T00:22:27;7.25;;;5.07;;
29570;SDS011;16814;52.118;11.436;2023-09-08T00:24:54;13.73;;;6.10;;
29570;SDS011;16814;52.118;11.436;2023-09-08T00:27:21;10.05;;;5.45;;
29570;SDS011;16814;52.118;11.436;2023-09-08T00:29:47;9.88;;;6.28;;
29570;SDS011;16814;52.118;11.436;2023-09-08T00:32:15;8.63;;;5.47;;
29570;SDS011;16814;52.118;11.436;2023-09-08T00:34:46;8.68;;;5.80;;
29570;SDS011;16814;52.118;11.436;2023-09-08T00:37:13;8.55;;;6.00;;
29570;SDS011;16814;52.118;11.436;2023-09-08T00:39:40;9.60;;;5.80;;
29570;SDS011;16814;52.118;11.436;2023-09-08T00:42:07;8.07;;;5.57;;
29570;SDS011;16814;52.118;11.436;2023-09-08T00:44:35;7.30;;;5.60;;
29570;SDS011;16814;52.118;11.436;2023-09-08T00:47:00;8.27;;;5.80;;
29570;SDS011;16814;52.118;11.436;2023-09-08T00:49:27;9.30;;;5.85;;
29570;SDS011;16814;52.118;11.436;2023-09-08T00:51:55;9.45;;;5.57;;
29570;SDS011;16814;52.118;11.436;2023-09-08T00:54:22;8.37;;;5.50;;
29570;SDS011;16814;52.118;11.436;2023-09-08T00:56:52;13.63;;;6.65;;
29570;SDS011;16814;52.118;11.436;2023-09-08T00:59:23;10.13;;;5.60;;
29570;SDS011;16814;52.118;11.436;2023-09-08T01:01:51;9.40;;;6.85;;
29570;SDS011;16814;52.118;11.436;2023-09-08T01:04:20;10.40;;;6.25;;
29570;SDS011;16814;52.118;11.436;2023-09-08T01:06:47;9.80;;;6.05;;
29570;SDS011;16814;52.118;11.436;2023-09-08T01:09:14;9.93;;;5.85;;
29570;SDS011;16814;52.118;11.436;2023-09-08T01:11:41;27.60;;;5.95;;
29570;SDS011;16814;52.118;11.436;2023-09-08T01:14:11;16.40;;;6.13;;
29570;SDS011;16814;52.118;11.436;2023-09-08T01:16:44;12.77;;;6.32;;
29570;SDS011;16814;52.118;11.436;2023-09-08T01:19:10;14.68;;;6.80;;
29570;SDS011;16814;52.118;11.436;2023-09-08T01:24:33;11.65;;;6.63;;
29570;SDS011;16814;52.118;11.436;2023-09-08T01:27:27;11.90;;;6.45;;
29570;SDS011;16814;52.118;11.436;2023-09-08T01:30:01;11.20;;;6.00;;
29570;SDS011;16814;52.118;11.436;2023-09-08T01:32:40;10.02;;;6.90;;
29570;SDS011;16814;52.118;11.436;2023-09-08T01:35:07;11.45;;;7.10;;
29570;SDS011;16814;52.118;11.436;2023-09-08T01:37:34;11.38;;;6.72;;
29570;SDS011;16814;52.118;11.436;2023-09-08T01:40:02;14.98;;;6.30;;
29570;SDS011;16814;52.118;11.436;2023-09-08T01:42:31;10.20;;;6.82;;
29570;SDS011;16814;52.118;11.436;2023-09-08T01:44:57;12.38;;;6.90;;
29570;SDS011;16814;52.118;11.436;2023-09-08T01:47:27;13.65;;;6.70;;
29570;SDS011;16814;52.118;11.436;2023-09-08T01:49:56;11.02;;;6.63;;
29570;SDS011;16814;52.118;11.436;2023-09-08T01:52:23;9.73;;;6.80;;
29570;SDS011;16814;52.118;11.436;2023-09-08T01:54:50;9.77;;;6.95;;
29570;SDS011;16814;52.118;11.436;2023-09-08T01:57:19;13.68;;;7.80;;
29570;SDS011;16814;52.118;11.436;2023-09-08T01:59:45;11.48;;;6.97;;
29570;SDS011;16814;52.118;11.436;2023-09-08T02:02:14;11.15;;;7.10;;
29570;SDS011;16814;52.118;11.436;2023-09-08T02:04:41;14.30;;;7.38;;
29570;SDS011;16814;52.118;11.436;2023-09-08T02:07:09;11.80;;;7.75;;
29570;SDS011;16814;52.118;11.436;2023-09-08T02:09:35;12.05;;;7.20;;
29570;SDS011;16814;52.118;11.436;2023-09-08T02:12:03;15.30;;;7.90;;
29570;SDS011;16814;52.118;11.436;2023-09-08T02:14:32;10.20;;;6.80;;
29570;SDS011;16814;52.118;11.436;2023-09-08T02:16:58;9.82;;;6.60;;
29570;SDS011;16814;52.118;11.436;2023-09-08T02:19:24;15.52;;;7.93;;
29570;SDS011;16814;52.118;11.436;2023-09-08T02:21:52;12.50;;;6.57;;
29570;SDS011;16814;52.118;11.436;2023-09-08T02:24:18;12.02;;;7.38;;
29570;SDS011;16814;52.118;11.436;2023-09-08T02:26:43;13.70;;;7.50;;
29570;SDS011;16814;52.118;11.436;2023-09-08T02:29:09;10.17;;;6.87;;
29570;SDS011;16814;52.118;11.436;2023-09-08T02:31:36;11.57;;;7.60;;
29570;SDS011;16814;52.118;11.436;2023-09-08T02:34:03;14.40;;;8.95;;
29570;SDS011;16814;52.118;11.436;2023-09-08T02:36:31;15.50;;;9.40;;
29570;SDS011;16814;52.118;11.436;2023-09-08T02:38:57;13.30;;;8.37;;
29570;SDS011;16814;52.118;11.436;2023-09-08T02:41:24;14.98;;;8.55;;
29570;SDS011;16814;52.118;11.436;2023-09-08T02:43:52;16.80;;;8.68;;
29570;SDS011;16814;52.118;11.436;2023-09-08T02:46:20;14.32;;;9.65;;
29570;SDS011;16814;52.118;11.436;2023-09-08T02:48:45;13.30;;;8.90;;
29570;SDS011;16814;52.118;11.436;2023-09-08T02:51:12;11.52;;;8.45;;
29570;SDS011;16814;52.118;11.436;2023-09-08T02:53:41;13.57;;;8.67;;
29570;SDS011;16814;52.118;11.436;2023-09-08T02:56:08;19.88;;;8.50;;
29570;SDS011;16814;52.118;11.436;2023-09-08T02:58:34;13.05;;;8.18;;
29570;SDS011;16814;52.118;11.436;2023-09-08T03:01:10;11.48;;;7.78;;
29570;SDS011;16814;52.118;11.436;2023-09-08T03:03:40;16.20;;;9.02;;
29570;SDS011;16814;52.118;11.436;2023-09-08T03:06:08;13.40;;;8.70;;
29570;SDS011;16814;52.118;11.436;2023-09-08T03:08:36;19.33;;;8.45;;
29570;SDS011;16814;52.118;11.436;2023-09-08T03:11:04;15.90;;;8.15;;
29570;SDS011;16814;52.118;11.436;2023-09-08T03:13:30;16.17;;;9.20;;
29570;SDS011;16814;52.118;11.436;2023-09-08T03:16:07;14.73;;;8.90;;
29570;SDS011;16814;52.118;11.436;2023-09-08T03:18:35;18.48;;;8.45;;
29570;SDS011;16814;52.118;11.436;2023-09-08T03:21:07;14.18;;;8.70;;
29570;SDS011;16814;52.118;11.436;2023-09-08T03:23:36;15.18;;;9.00;;
29570;SDS011;16814;52.118;11.436;2023-09-08T03:26:04;12.25;;;8.70;;
29570;SDS011;16814;52.118;11.436;2023-09-08T03:28:32;15.60;;;9.32;;
29570;SDS011;16814;52.118;11.436;2023-09-08T03:31:01;12.27;;;8.37;;
29570;SDS011;16814;52.118;11.436;2023-09-08T03:33:27;13.57;;;8.85;;
29570;SDS011;16814;52.118;11.436;2023-09-08T03:35:53;15.93;;;8.40;;
29570;SDS011;16814;52.118;11.436;2023-09-08T03:38:20;13.93;;;8.27;;
29570;SDS011;16814;52.118;11.436;2023-09-08T03:40:46;14.73;;;8.60;;
29570;SDS011;16814;52.118;11.436;2023-09-08T03:43:14;18.30;;;9.65;;
29570;SDS011;16814;52.118;11.436;2023-09-08T03:45:42;15.43;;;8.35;;
29570;SDS011;16814;52.118;11.436;2023-09-08T03:48:09;12.37;;;8.17;;
29570;SDS011;16814;52.118;11.436;2023-09-08T03:50:39;15.70;;;9.05;;
29570;SDS011;16814;52.118;11.436;2023-09-08T03:53:12;12.88;;;8.35;;
29570;SDS011;16814;52.118;11.436;2023-09-08T03:55:40;13.10;;;8.25;;
29570;SDS011;16814;52.118;11.436;2023-09-08T03:58:06;11.03;;;7.97;;
29570;SDS011;16814;52.118;11.436;2023-09-08T04:00:32;15.17;;;9.57;;
29570;SDS011;16814;52.118;11.436;2023-09-08T04:02:59;14.93;;;8.48;;
29570;SDS011;16814;52.118;11.436;2023-09-08T04:05:28;15.85;;;7.90;;
29570;SDS011;16814;52.118;11.436;2023-09-08T04:07:55;17.83;;;8.45;;
29570;SDS011;16814;52.118;11.436;2023-09-08T04:10:22;13.20;;;8.80;;
29570;SDS011;16814;52.118;11.436;2023-09-08T04:12:47;14.55;;;9.30;;
29570;SDS011;16814;52.118;11.436;2023-09-08T04:15:14;14.18;;;9.25;;
29570;SDS011;16814;52.118;11.436;2023-09-08T04:17:42;20.00;;;9.48;;
29570;SDS011;16814;52.118;11.436;2023-09-08T04:20:08;15.57;;;10.10;;
29570;SDS011;16814;52.118;11.436;2023-09-08T04:22:36;18.25;;;9.45;;
29570;SDS011;16814;52.118;11.436;2023-09-08T04:25:03;15.90;;;9.32;;
29570;SDS011;16814;52.118;11.436;2023-09-08T04:27:31;14.48;;;9.63;;
29570;SDS011;16814;52.118;11.436;2023-09-08T04:30:02;13.27;;;8.57;;
29570;SDS011;16814;52.118;11.436;2023-09-08T04:32:31;16.13;;;9.70;;
29570;SDS011;16814;52.118;11.436;2023-09-08T04:34:58;19.08;;;10.48;;
29570;SDS011;16814;52.118;11.436;2023-09-08T04:37:26;13.95;;;8.73;;
29570;SDS011;16814;52.118;11.436;2023-09-08T04:39:53;16.38;;;10.15;;
29570;SDS011;16814;52.118;11.436;2023-09-08T04:42:21;15.05;;;9.43;;
29570;SDS011;16814;52.118;11.436;2023-09-08T04:44:48;19.43;;;10.40;;
29570;SDS011;16814;52.118;11.436;2023-09-08T04:47:18;18.38;;;10.90;;
29570;SDS011;16814;52.118;11.436;2023-09-08T04:49:45;15.57;;;10.73;;
29570;SDS011;16814;52.118;11.436;2023-09-08T04:52:13;16.60;;;9.27;;
29570;SDS011;16814;52.118;11.436;2023-09-08T04:54:40;22.80;;;10.65;;
29570;SDS011;16814;52.118;11.436;2023-09-08T04:57:05;18.00;;;10.50;;
29570;SDS011;16814;52.118;11.436;2023-09-08T04:59:32;17.23;;;9.90;;
29570;SDS011;16814;52.118;11.436;2023-09-08T05:02:03;14.98;;;9.90;;
29570;SDS011;16814;52.118;11.436;2023-09-08T05:04:29;16.75;;;10.65;;
29570;SDS011;16814;52.118;11.436;2023-09-08T05:06:55;18.92;;;10.60;;
29570;SDS011;16814;52.118;11.436;2023-09-08T05:09:24;17.88;;;11.00;;
29570;SDS011;16814;52.118;11.436;2023-09-08T05:11:49;24.77;;;11.25;;
29570;SDS011;16814;52.118;11.436;2023-09-08T05:14:17;19.05;;;10.82;;
29570;SDS011;16814;52.118;11.436;2023-09-08T05:16:43;19.47;;;10.87;;
29570;SDS011;16814;52.118;11.436;2023-09-08T05:19:22;20.40;;;10.20;;
29570;SDS011;16814;52.118;11.436;2023-09-08T05:22:04;16.17;;;10.18;;
29570;SDS011;16814;52.118;11.436;2023-09-08T05:24:32;16.60;;;10.23;;
29570;SDS011;16814;52.118;11.436;2023-09-08T05:27:00;19.98;;;10.45;;
29570;SDS011;16814;52.118;11.436;2023-09-08T05:29:26;19.20;;;10.68;;
29570;SDS011;16814;52.118;11.436;2023-09-08T05:31:53;15.25;;;9.57;;
29570;SDS011;16814;52.118;11.436;2023-09-08T05:34:20;16.70;;;9.68;;
29570;SDS011;16814;52.118;11.436;2023-09-08T05:36:47;20.92;;;9.85;;
29570;SDS011;16814;52.118;11.436;2023-09-08T05:39:14;16.55;;;10.20;;
29570;SDS011;16814;52.118;11.436;2023-09-08T05:41:46;19.15;;;9.77;;
29570;SDS011;16814;52.118;11.436;2023-09-08T05:44:13;16.42;;;10.60;;
29570;SDS011;16814;52.118;11.436;2023-09-08T05:46:44;15.37;;;10.00;;
29570;SDS011;16814;52.118;11.436;2023-09-08T05:49:10;19.20;;;10.53;;
29570;SDS011;16814;52.118;11.436;2023-09-08T05:51:35;22.27;;;10.38;;
29570;SDS011;16814;52.118;11.436;2023-09-08T05:54:02;17.48;;;10.18;;
29570;SDS011;16814;52.118;11.436;2023-09-08T05:56:33;17.07;;;9.50;;
29570;SDS011;16814;52.118;11.436;2023-09-08T05:59:04;16.88;;;9.93;;
29570;SDS011;16814;52.118;11.436;2023-09-08T06:01:34;20.80;;;10.35;;
29570;SDS011;16814;52.118;11.436;2023-09-08T06:04:02;20.17;;;10.25;;
29570;SDS011;16814;52.118;11.436;2023-09-08T06:06:29;20.75;;;10.50;;
29570;SDS011;16814;52.118;11.436;2023-09-08T06:08:59;14.65;;;9.15;;
29570;SDS011;16814;52.118;11.436;2023-09-08T06:11:26;18.92;;;10.77;;
29570;SDS011;16814;52.118;11.436;2023-09-08T06:13:52;17.25;;;9.68;;
29570;SDS011;16814;52.118;11.436;2023-09-08T06:16:25;20.25;;;10.50;;
29570;SDS011;16814;52.118;11.436;2023-09-08T06:18:52;13.73;;;9.52;;
29570;SDS011;16814;52.118;11.436;2023-09-08T06:21:19;18.10;;;9.98;;
29570;SDS011;16814;52.118;11.436;2023-09-08T06:23:46;21.60;;;10.05;;
29570;SDS011;16814;52.118;11.436;2023-09-08T06:26:12;16.73;;;10.27;;
29570;SDS011;16814;52.118;11.436;2023-09-08T06:28:42;17.83;;;10.30;;
29570;SDS011;16814;52.118;11.436;2023-09-08T06:31:10;18.05;;;10.30;;
29570;SDS011;16814;52.118;11.436;2023-09-08T06:33:35;16.35;;;9.77;;
29570;SDS011;16814;52.118;11.436;2023-09-08T06:36:02;23.00;;;9.73;;
29570;SDS011;16814;52.118;11.436;2023-09-08T06:38:35;15.10;;;9.48;;
29570;SDS011;16814;52.118;11.436;2023-09-08T06:41:12;17.53;;;10.27;;
29570;SDS011;16814;52.118;11.436;2023-09-08T06:43:38;21.52;;;9.15;;
29570;SDS011;16814;52.118;11.436;2023-09-08T06:46:04;18.37;;;9.50;;
29570;SDS011;16814;52.118;11.436;2023-09-08T06:48:31;13.25;;;8.65;;
29570;SDS011;16814;52.118;11.436;2023-09-08T06:50:58;14.77;;;8.93;;
29570;SDS011;16814;52.118;11.436;2023-09-08T06:53:26;13.67;;;8.70;;
29570;SDS011;16814;52.118;11.436;2023-09-08T06:55:53;20.23;;;8.60;;
29570;SDS011;16814;52.118;11.436;2023-09-08T06:58:19;14.35;;;8.45;;
29570;SDS011;16814;52.118;11.436;2023-09-08T07:00:46;14.75;;;7.72;;
29570;SDS011;16814;52.118;11.436;2023-09-08T07:03:15;13.20;;;7.97;;
29570;SDS011;16814;52.118;11.436;2023-09-08T07:05:44;14.48;;;7.78;;
29570;SDS011;16814;52.118;11.436;2023-09-08T07:08:11;12.55;;;7.55;;
29570;SDS011;16814;52.118;11.436;2023-09-08T07:10:38;14.27;;;7.80;;
29570;SDS011;16814;52.118;11.436;2023-09-08T07:13:04;13.80;;;7.68;;
29570;SDS011;16814;52.118;11.436;2023-09-08T07:15:31;19.25;;;7.88;;
29570;SDS011;16814;52.118;11.436;2023-09-08T07:18:01;14.27;;;7.57;;
29570;SDS011;16814;52.118;11.436;2023-09-08T07:20:26;11.43;;;7.45;;
29570;SDS011;16814;52.118;11.436;2023-09-08T07:22:53;10.20;;;6.93;;
29570;SDS011;16814;52.118;11.436;2023-09-08T07:25:21;11.43;;;7.20;;
29570;SDS011;16814;52.118;11.436;2023-09-08T07:27:48;11.13;;;7.13;;
29570;SDS011;16814;52.118;11.436;2023-09-08T07:30:20;14.43;;;7.25;;
29570;SDS011;16814;52.118;11.436;2023-09-08T07:32:47;17.42;;;7.63;;
29570;SDS011;16814;52.118;11.436;2023-09-08T07:35:14;13.00;;;7.50;;
29570;SDS011;16814;52.118;11.436;2023-09-08T07:37:44;11.47;;;7.20;;
29570;SDS011;16814;52.118;11.436;2023-09-08T07:40:10;11.63;;;7.57;;
29570;SDS011;16814;52.118;11.436;2023-09-08T07:42:37;14.82;;;8.73;;
29570;SDS011;16814;52.118;11.436;2023-09-08T07:45:03;16.42;;;8.38;;
29570;SDS011;16814;52.118;11.436;2023-09-08T07:47:32;12.63;;;8.35;;
29570;SDS011;16814;52.118;11.436;2023-09-08T07:52:45;11.77;;;7.68;;
29570;SDS011;16814;52.118;11.436;2023-09-08T07:55:13;13.05;;;7.47;;
29570;SDS011;16814;52.118;11.436;2023-09-08T07:57:42;13.15;;;8.10;;
29570;SDS011;16814;52.118;11.436;2023-09-08T08:00:10;17.40;;;7.97;;
29570;SDS011;16814;52.118;11.436;2023-09-08T08:02:45;13.68;;;7.63;;
29570;SDS011;16814;52.118;11.436;2023-09-08T08:05:13;11.88;;;7.30;;
29570;SDS011;16814;52.118;11.436;2023-09-08T08:07:45;13.55;;;7.28;;
29570;SDS011;16814;52.118;11.436;2023-09-08T08:10:14;15.82;;;6.90;;
29570;SDS011;16814;52.118;11.436;2023-09-08T08:12:39;16.40;;;6.60;;
29570;SDS011;16814;52.118;11.436;2023-09-08T08:15:06;10.48;;;6.07;;
29570;SDS011;16814;52.118;11.436;2023-09-08T08:17:36;11.93;;;6.97;;
29570;SDS011;16814;52.118;11.436;2023-09-08T08:20:05;13.23;;;7.07;;
29570;SDS011;16814;52.118;11.436;2023-09-08T08:22:36;12.77;;;6.82;;
29570;SDS011;16814;52.118;11.436;2023-09-08T08:25:05;11.98;;;6.72;;
29570;SDS011;16814;52.118;11.436;2023-09-08T08:27:32;16.05;;;6.47;;
29570;SDS011;16814;52.118;11.436;2023-09-08T08:29:59;15.88;;;6.80;;
29570;SDS011;16814;52.118;11.436;2023-09-08T08:32:29;13.68;;;6.97;;
29570;SDS011;16814;52.118;11.436;2023-09-08T08:34:59;15.93;;;7.35;;
29570;SDS011;16814;52.118;11.436;2023-09-08T08:37:27;12.02;;;6.78;;
29570;SDS011;16814;52.118;11.436;2023-09-08T08:39:54;16.48;;;6.57;;
29570;SDS011;16814;52.118;11.436;2023-09-08T08:42:21;12.47;;;6.90;;
29570;SDS011;16814;52.118;11.436;2023-09-08T08:44:49;10.43;;;6.55;;
29570;SDS011;16814;52.118;11.436;2023-09-08T08:47:16;12.87;;;6.40;;
29570;SDS011;16814;52.118;11.436;2023-09-08T08:49:48;11.65;;;6.30;;
29570;SDS011;16814;52.118;11.436;2023-09-08T08:52:18;12.27;;;6.10;;
29570;SDS011;16814;52.118;11.436;2023-09-08T08:54:45;11.70;;;5.83;;
29570;SDS011;16814;52.118;11.436;2023-09-08T08:57:12;11.70;;;6.20;;
29570;SDS011;16814;52.118;11.436;2023-09-08T08:59:40;17.33;;;7.00;;
29570;SDS011;16814;52.118;11.436;2023-09-08T09:02:09;13.77;;;6.28;;
29570;SDS011;16814;52.118;11.436;2023-09-08T09:04:39;8.95;;;5.85;;
29570;SDS011;16814;52.118;11.436;2023-09-08T09:07:07;13.18;;;5.97;;
29570;SDS011;16814;52.118;11.436;2023-09-08T09:09:33;8.63;;;5.63;;
29570;SDS011;16814;52.118;11.436;2023-09-08T09:12:01;11.60;;;5.70;;
29570;SDS011;16814;52.118;11.436;2023-09-08T09:14:32;10.43;;;5.45;;
29570;SDS011;16814;52.118;11.436;2023-09-08T09:17:00;13.15;;;5.40;;
29570;SDS011;16814;52.118;11.436;2023-09-08T09:19:40;10.35;;;5.60;;
29570;SDS011;16814;52.118;11.436;2023-09-08T09:22:08;13.57;;;5.70;;
29570;SDS011;16814;52.118;11.436;2023-09-08T09:24:39;9.02;;;5.28;;
29570;SDS011;16814;52.118;11.436;2023-09-08T09:27:09;13.00;;;5.78;;
29570;SDS011;16814;52.118;11.436;2023-09-08T09:29:44;11.35;;;5.57;;
29570;SDS011;16814;52.118;11.436;2023-09-08T09:32:15;13.27;;;5.50;;
29570;SDS011;16814;52.118;11.436;2023-09-08T09:35:01;20.67;;;6.20;;
29570;SDS011;16814;52.118;11.436;2023-09-08T09:37:29;14.77;;;5.55;;
29570;SDS011;16814;52.118;11.436;2023-09-08T09:39:57;9.60;;;5.15;;
29570;SDS011;16814;52.118;11.436;2023-09-08T09:42:23;15.10;;;5.45;;
29570;SDS011;16814;52.118;11.436;2023-09-08T09:44:54;11.95;;;5.28;;
29570;SDS011;16814;52.118;11.436;2023-09-08T09:47:26;10.10;;;5.07;;
29570;SDS011;16814;52.118;11.436;2023-09-08T09:49:53;11.77;;;5.43;;
29570;SDS011;16814;52.118;11.436;2023-09-08T09:52:25;7.15;;;4.70;;
29570;SDS011;16814;52.118;11.436;2023-09-08T09:54:53;7.72;;;4.13;;
29570;SDS011;16814;52.118;11.436;2023-09-08T09:57:21;10.35;;;5.07;;
29570;SDS011;16814;52.118;11.436;2023-09-08T09:59:53;6.68;;;4.70;;
29570;SDS011;16814;52.118;11.436;2023-09-08T10:02:23;11.95;;;4.80;;
29570;SDS011;16814;52.118;11.436;2023-09-08T10:04:53;8.82;;;4.60;;
29570;SDS011;16814;52.118;11.436;2023-09-08T10:07:19;10.57;;;4.90;;
29570;SDS011;16814;52.118;11.436;2023-09-08T10:09:53;10.13;;;5.10;;
29570;SDS011;16814;52.118;11.436;2023-09-08T10:12:20;9.32;;;4.80;;
29570;SDS011;16814;52.118;11.436;2023-09-08T10:14:56;10.37;;;4.60;;
29570;SDS011;16814;52.118;11.436;2023-09-08T10:17:23;13.10;;;4.70;;
29570;SDS011;16814;52.118;11.436;2023-09-08T10:19:55;10.23;;;4.22;;
29570;SDS011;16814;52.118;11.436;2023-09-08T10:22:27;12.13;;;4.65;;
29570;SDS011;16814;52.118;11.436;2023-09-08T10:24:57;7.72;;;4.80;;
29570;SDS011;16814;52.118;11.436;2023-09-08T10:27:31;6.63;;;4.32;;
29570;SDS011;16814;52.118;11.436;2023-09-08T10:30:05;13.05;;;4.25;;
29570;SDS011;16814;52.118;11.436;2023-09-08T10:32:36;9.88;;;4.70;;
29570;SDS011;16814;52.118;11.436;2023-09-08T10:35:06;11.37;;;5.00;;
29570;SDS011;16814;52.118;11.436;2023-09-08T10:37:35;8.18;;;4.60;;
29570;SDS011;16814;52.118;11.436;2023-09-08T10:40:21;9.30;;;4.30;;
29570;SDS011;16814;52.118;11.436;2023-09-08T10:43:07;10.13;;;4.17;;
29570;SDS011;16814;52.118;11.436;2023-09-08T10:45:36;8.43;;;4.37;;
29570;SDS011;16814;52.118;11.436;2023-09-08T10:48:03;12.05;;;4.22;;
29570;SDS011;16814;52.118;11.436;2023-09-08T10:50:33;10.85;;;4.35;;
29570;SDS011;16814;52.118;11.436;2023-09-08T10:53:18;8.03;;;4.00;;
29570;SDS011;16814;52.118;11.436;2023-09-08T10:55:48;9.27;;;4.40;;
29570;SDS011;16814;52.118;11.436;2023-09-08T10:58:30;6.97;;;4.07;;
29570;SDS011;16814;52.118;11.436;2023-09-08T11:01:08;10.88;;;4.20;;
29570;SDS011;16814;52.118;11.436;2023-09-08T11:03:43;8.60;;;3.70;;
29570;SDS011;16814;52.118;11.436;2023-09-08T11:06:15;9.73;;;4.35;;
29570;SDS011;16814;52.118;11.436;2023-09-08T11:08:44;8.20;;;4.00;;
29570;SDS011;16814;52.118;11.436;2023-09-08T11:11:11;8.38;;;4.10;;
29570;SDS011;16814;52.118;11.436;2023-09-08T11:13:39;6.72;;;4.28;;
29570;SDS011;16814;52.118;11.436;2023-09-08T11:16:06;8.57;;;4.07;;
29570;SDS011;16814;52.118;11.436;2023-09-08T11:18:33;5.82;;;4.00;;
29570;SDS011;16814;52.118;11.436;2023-09-08T11:21:07;7.40;;;4.18;;
29570;SDS011;16814;52.118;11.436;2023-09-08T11:23:36;5.50;;;3.75;;
29570;SDS011;16814;52.118;11.436;2023-09-08T11:26:03;8.10;;;4.07;;
29570;SDS011;16814;52.118;11.436;2023-09-08T11:28:38;7.83;;;4.20;;
29570;SDS011;16814;52.118;11.436;2023-09-08T11:31:06;9.50;;;4.43;;
29570;SDS011;16814;52.118;11.436;2023-09-08T11:33:36;8.18;;;3.90;;
29570;SDS011;16814;52.118;11.436;2023-09-08T11:36:17;7.38;;;4.40;;
29570;SDS011;16814;52.118;11.436;2023-09-08T11:38:45;7.75;;;3.90;;
29570;SDS011;16814;52.118;11.436;2023-09-08T11:41:15;7.30;;;3.97;;
29570;SDS011;16814;52.118;11.436;2023-09-08T11:43:49;7.38;;;4.00;;
29570;SDS011;16814;52.118;11.436;2023-09-08T11:46:16;6.80;;;4.00;;
29570;SDS011;16814;52.118;11.436;2023-09-08T11:48:44;8.33;;;3.80;;
29570;SDS011;16814;52.118;11.436;2023-09-08T11:51:14;8.60;;;4.25;;
29570;SDS011;16814;52.118;11.436;2023-09-08T11:53:42;14.98;;;4.43;;
29570;SDS011;16814;52.118;11.436;2023-09-08T11:56:08;10.68;;;4.07;;
29570;SDS011;16814;52.118;11.436;2023-09-08T11:58:35;10.52;;;3.78;;
29570;SDS011;16814;52.118;11.436;2023-09-08T12:01:02;9.00;;;4.32;;
29570;SDS011;16814;52.118;11.436;2023-09-08T12:03:32;17.25;;;4.28;;
29570;SDS011;16814;52.118;11.436;2023-09-08T12:05:59;8.10;;;3.95;;
29570;SDS011;16814;52.118;11.436;2023-09-08T12:08:29;8.97;;;4.10;;
29570;SDS011;16814;52.118;11.436;2023-09-08T12:10:56;20.17;;;4.15;;
29570;SDS011;16814;52.118;11.436;2023-09-08T12:13:23;9.77;;;3.70;;
29570;SDS011;16814;52.118;11.436;2023-09-08T12:15:49;11.77;;;3.50;;
29570;SDS011;16814;52.118;11.436;2023-09-08T12:18:14;5.38;;;3.40;;
29570;SDS011;16814;52.118;11.436;2023-09-08T12:20:41;9.00;;;3.70;;
29570;SDS011;16814;52.118;11.436;2023-09-08T12:23:22;15.60;;;3.93;;
29570;SDS011;16814;52.118;11.436;2023-09-08T12:25:49;10.77;;;3.60;;
29570;SDS011;16814;52.118;11.436;2023-09-08T12:28:17;10.23;;;4.07;;
29570;SDS011;16814;52.118;11.436;2023-09-08T12:30:47;9.60;;;3.83;;
29570;SDS011;16814;52.118;11.436;2023-09-08T12:33:16;9.90;;;3.95;;
29570;SDS011;16814;52.118;11.436;2023-09-08T12:35:46;7.43;;;3.67;;
29570;SDS011;16814;52.118;11.436;2023-09-08T12:38:14;11.10;;;3.83;;
29570;SDS011;16814;52.118;11.436;2023-09-08T12:40:40;6.37;;;3.90;;
29570;SDS011;16814;52.118;11.436;2023-09-08T12:43:07;8.52;;;4.07;;
29570;SDS011;16814;52.118;11.436;2023-09-08T12:45:34;9.13;;;3.53;;
29570;SDS011;16814;52.118;11.436;2023-09-08T12:48:02;10.88;;;3.40;;
29570;SDS011;16814;52.118;11.436;2023-09-08T12:50:32;11.50;;;4.10;;
29570;SDS011;16814;52.118;11.436;2023-09-08T12:52:57;9.17;;;3.77;;
29570;SDS011;16814;52.118;11.436;2023-09-08T12:55:25;13.70;;;3.90;;
29570;SDS011;16814;52.118;11.436;2023-09-08T12:57:52;25.10;;;4.30;;
29570;SDS011;16814;52.118;11.436;2023-09-08T13:00:21;10.13;;;3.72;;
29570;SDS011;16814;52.118;11.436;2023-09-08T13:02:50;9.48;;;3.80;;
29570;SDS011;16814;52.118;11.436;2023-09-08T13:05:18;7.03;;;3.63;;
29570;SDS011;16814;52.118;11.436;2023-09-08T13:07:44;9.27;;;4.10;;
29570;SDS011;16814;52.118;11.436;2023-09-08T13:10:10;8.73;;;3.67;;
29570;SDS011;16814;52.118;11.436;2023-09-08T13:12:38;13.55;;;4.10;;
29570;SDS011;16814;52.118;11.436;2023-09-08T13:15:07;12.07;;;3.70;;
29570;SDS011;16814;52.118;11.436;2023-09-08T13:17:35;13.68;;;3.92;;
29570;SDS011;16814;52.118;11.436;2023-09-08T13:20:04;10.13;;;3.92;;
29570;SDS011;16814;52.118;11.436;2023-09-08T13:22:34;10.43;;;3.42;;
29570;SDS011;16814;52.118;11.436;2023-09-08T13:25:01;13.25;;;3.55;;
29570;SDS011;16814;52.118;11.436;2023-09-08T13:27:27;13.93;;;3.80;;
29570;SDS011;16814;52.118;11.436;2023-09-08T13:30:26;8.93;;;3.60;;
29570;SDS011;16814;52.118;11.436;2023-09-08T13:32:48;12.97;;;3.70;;
29570;SDS011;16814;52.118;11.436;2023-09-08T13:35:16;8.90;;;3.83;;
29570;SDS011;16814;52.118;11.436;2023-09-08T13:37:45;8.75;;;3.55;;
29570;SDS011;16814;52.118;11.436;2023-09-08T13:40:15;15.95;;;4.00;;
29570;SDS011;16814;52.118;11.436;2023-09-08T13:42:43;18.07;;;4.00;;
29570;SDS011;16814;52.118;11.436;2023-09-08T13:45:10;7.80;;;3.67;;
29570;SDS011;16814;52.118;11.436;2023-09-08T13:47:37;10.60;;;3.42;;
29570;SDS011;16814;52.118;11.436;2023-09-08T13:50:03;9.07;;;3.53;;
29570;SDS011;16814;52.118;11.436;2023-09-08T13:52:40;4.45;;;3.30;;
29570;SDS011;16814;52.118;11.436;2023-09-08T13:55:07;5.60;;;3.50;;
29570;SDS011;16814;52.118;11.436;2023-09-08T13:57:34;9.20;;;3.75;;
29570;SDS011;16814;52.118;11.436;2023-09-08T14:00:01;9.73;;;3.85;;
29570;SDS011;16814;52.118;11.436;2023-09-08T14:02:28;12.82;;;4.03;;
29570;SDS011;16814;52.118;11.436;2023-09-08T14:04:57;14.95;;;3.55;;
29570;SDS011;16814;52.118;11.436;2023-09-08T14:07:25;6.57;;;3.78;;
29570;SDS011;16814;52.118;11.436;2023-09-08T14:09:53;6.37;;;3.57;;
29570;SDS011;16814;52.118;11.436;2023-09-08T14:12:24;8.90;;;3.90;;
29570;SDS011;16814;52.118;11.436;2023-09-08T14:14:50;10.35;;;3.78;;
29570;SDS011;16814;52.118;11.436;2023-09-08T14:17:17;15.23;;;3.75;;
29570;SDS011;16814;52.118;11.436;2023-09-08T14:19:44;6.83;;;3.50;;
29570;SDS011;16814;52.118;11.436;2023-09-08T14:22:11;7.38;;;3.63;;
29570;SDS011;16814;52.118;11.436;2023-09-08T14:24:37;5.73;;;3.40;;
29570;SDS011;16814;52.118;11.436;2023-09-08T14:27:04;5.77;;;3.50;;
29570;SDS011;16814;52.118;11.436;2023-09-08T14:29:33;10.48;;;3.45;;
29570;SDS011;16814;52.118;11.436;2023-09-08T14:32:01;9.38;;;3.60;;
29570;SDS011;16814;52.118;11.436;2023-09-08T14:34:27;6.30;;;3.42;;
29570;SDS011;16814;52.118;11.436;2023-09-08T14:37:03;5.28;;;3.05;;